sensor_id;sensor_type;location;lat;lon;timestamp;P1;durP1;ratioP1;P2;durP2;ratioP2
12719;SDS011;6424;48.520;11.228;2022-12-18T00:02:15;60.87;;;31.13;;
12719;SDS011;6424;48.520;11.228;2022-12-18T00:04:55;57.90;;;29.07;;
12719;SDS011;6424;48.520;11.228;2022-12-18T00:07:36;59.00;;;29.40;;
12719;SDS011;6424;48.520;11.228;2022-12-18T00:10:17;58.80;;;29.23;;
12719;SDS011;6424;48.520;11.228;2022-12-18T00:12:58;61.67;;;31.73;;
12719;SDS011;6424;48.520;11.228;2022-12-18T00:15:39;59.70;;;30.13;;
12719;SDS011;6424;48.520;11.228;2022-12-18T00:18:20;61.97;;;31.37;;
12719;SDS011;6424;48.520;11.228;2022-12-18T00:21:01;61.57;;;29.53;;
12719;SDS011;6424;48.520;11.228;2022-12-18T00:23:45;57.33;;;29.17;;
12719;SDS011;6424;48.520;11.228;2022-12-18T00:26:29;60.93;;;29.90;;
12719;SDS011;6424;48.520;11.228;2022-12-18T00:29:12;60.30;;;29.50;;
12719;SDS011;6424;48.520;11.228;2022-12-18T00:31:54;63.77;;;30.33;;
12719;SDS011;6424;48.520;11.228;2022-12-18T00:34:35;63.07;;;29.57;;
12719;SDS011;6424;48.520;11.228;2022-12-18T00:37:15;63.10;;;31.43;;
12719;SDS011;6424;48.520;11.228;2022-12-18T00:39:41;64.50;;;31.30;;
12719;SDS011;6424;48.520;11.228;2022-12-18T00:42:22;57.60;;;29.47;;
12719;SDS011;6424;48.520;11.228;2022-12-18T00:45:22;57.30;;;30.20;;
12719;SDS011;6424;48.520;11.228;2022-12-18T00:47:49;64.60;;;30.77;;
12719;SDS011;6424;48.520;11.228;2022-12-18T00:50:30;61.27;;;30.57;;
12719;SDS011;6424;48.520;11.228;2022-12-18T00:53:11;60.60;;;30.10;;
12719;SDS011;6424;48.520;11.228;2022-12-18T00:55:37;61.10;;;30.90;;
12719;SDS011;6424;48.520;11.228;2022-12-18T00:58:19;54.00;;;28.10;;
12719;SDS011;6424;48.520;11.228;2022-12-18T01:01:00;56.33;;;27.97;;
12719;SDS011;6424;48.520;11.228;2022-12-18T01:03:41;58.90;;;28.07;;
12719;SDS011;6424;48.520;11.228;2022-12-18T01:06:22;57.87;;;27.87;;
12719;SDS011;6424;48.520;11.228;2022-12-18T01:09:03;61.93;;;28.40;;
12719;SDS011;6424;48.520;11.228;2022-12-18T01:11:44;61.23;;;28.63;;
12719;SDS011;6424;48.520;11.228;2022-12-18T01:14:25;58.97;;;27.30;;
12719;SDS011;6424;48.520;11.228;2022-12-18T01:17:05;62.97;;;28.63;;
12719;SDS011;6424;48.520;11.228;2022-12-18T01:19:46;60.17;;;27.70;;
12719;SDS011;6424;48.520;11.228;2022-12-18T01:22:12;63.33;;;28.57;;
12719;SDS011;6424;48.520;11.228;2022-12-18T01:24:53;61.73;;;31.07;;
12719;SDS011;6424;48.520;11.228;2022-12-18T01:27:34;56.70;;;28.27;;
12719;SDS011;6424;48.520;11.228;2022-12-18T01:30:14;63.23;;;27.53;;
12719;SDS011;6424;48.520;11.228;2022-12-18T01:32:55;68.83;;;29.40;;
12719;SDS011;6424;48.520;11.228;2022-12-18T01:35:40;63.77;;;29.07;;
12719;SDS011;6424;48.520;11.228;2022-12-18T01:38:07;64.60;;;28.63;;
12719;SDS011;6424;48.520;11.228;2022-12-18T01:40:48;64.80;;;28.40;;
12719;SDS011;6424;48.520;11.228;2022-12-18T01:46:41;56.30;;;27.07;;
12719;SDS011;6424;48.520;11.228;2022-12-18T01:49:22;64.70;;;29.20;;
12719;SDS011;6424;48.520;11.228;2022-12-18T01:52:03;64.13;;;29.00;;
12719;SDS011;6424;48.520;11.228;2022-12-18T01:54:44;60.43;;;29.03;;
12719;SDS011;6424;48.520;11.228;2022-12-18T01:57:26;58.87;;;28.07;;
12719;SDS011;6424;48.520;11.228;2022-12-18T01:59:54;63.97;;;27.43;;
12719;SDS011;6424;48.520;11.228;2022-12-18T02:02:40;63.60;;;30.37;;
12719;SDS011;6424;48.520;11.228;2022-12-18T02:06:08;60.70;;;27.87;;
12719;SDS011;6424;48.520;11.228;2022-12-18T02:08:57;65.73;;;30.07;;
12719;SDS011;6424;48.520;11.228;2022-12-18T02:20:32;61.77;;;29.10;;
12719;SDS011;6424;48.520;11.228;2022-12-18T02:26:22;71.30;;;31.97;;
12719;SDS011;6424;48.520;11.228;2022-12-18T02:29:22;67.33;;;29.73;;
12719;SDS011;6424;48.520;11.228;2022-12-18T02:32:14;68.73;;;32.37;;
12719;SDS011;6424;48.520;11.228;2022-12-18T02:34:59;64.93;;;30.17;;
12719;SDS011;6424;48.520;11.228;2022-12-18T02:37:43;61.93;;;29.03;;
12719;SDS011;6424;48.520;11.228;2022-12-18T02:40:12;64.80;;;29.77;;
12719;SDS011;6424;48.520;11.228;2022-12-18T02:42:55;62.33;;;29.00;;
12719;SDS011;6424;48.520;11.228;2022-12-18T02:45:47;59.47;;;29.73;;
12719;SDS011;6424;48.520;11.228;2022-12-18T02:48:32;69.10;;;29.10;;
12719;SDS011;6424;48.520;11.228;2022-12-18T02:51:18;61.60;;;28.83;;
12719;SDS011;6424;48.520;11.228;2022-12-18T02:54:09;62.23;;;28.33;;
12719;SDS011;6424;48.520;11.228;2022-12-18T03:00:03;66.93;;;28.87;;
12719;SDS011;6424;48.520;11.228;2022-12-18T03:02:59;55.83;;;26.87;;
12719;SDS011;6424;48.520;11.228;2022-12-18T03:06:02;56.37;;;25.23;;
12719;SDS011;6424;48.520;11.228;2022-12-18T03:08:46;58.63;;;27.63;;
12719;SDS011;6424;48.520;11.228;2022-12-18T03:11:30;58.93;;;26.10;;
12719;SDS011;6424;48.520;11.228;2022-12-18T03:14:34;65.67;;;27.37;;
12719;SDS011;6424;48.520;11.228;2022-12-18T03:17:18;58.47;;;26.47;;
12719;SDS011;6424;48.520;11.228;2022-12-18T03:20:03;61.83;;;28.13;;
12719;SDS011;6424;48.520;11.228;2022-12-18T03:22:49;56.87;;;26.97;;
12719;SDS011;6424;48.520;11.228;2022-12-18T03:25:34;54.97;;;25.80;;
12719;SDS011;6424;48.520;11.228;2022-12-18T03:28:19;58.27;;;27.10;;
12719;SDS011;6424;48.520;11.228;2022-12-18T03:31:02;58.60;;;27.27;;
12719;SDS011;6424;48.520;11.228;2022-12-18T03:33:57;51.10;;;24.60;;
12719;SDS011;6424;48.520;11.228;2022-12-18T03:36:41;52.63;;;24.70;;
12719;SDS011;6424;48.520;11.228;2022-12-18T03:39:22;55.03;;;26.47;;
12719;SDS011;6424;48.520;11.228;2022-12-18T03:42:17;53.50;;;25.23;;
12719;SDS011;6424;48.520;11.228;2022-12-18T03:48:05;54.27;;;25.30;;
12719;SDS011;6424;48.520;11.228;2022-12-18T03:51:05;55.77;;;26.70;;
12719;SDS011;6424;48.520;11.228;2022-12-18T03:53:51;56.63;;;27.17;;
12719;SDS011;6424;48.520;11.228;2022-12-18T03:56:36;58.93;;;26.73;;
12719;SDS011;6424;48.520;11.228;2022-12-18T03:59:24;55.17;;;26.27;;
12719;SDS011;6424;48.520;11.228;2022-12-18T04:02:07;57.10;;;25.00;;
12719;SDS011;6424;48.520;11.228;2022-12-18T04:04:50;54.57;;;26.10;;
12719;SDS011;6424;48.520;11.228;2022-12-18T04:07:33;53.57;;;25.93;;
12719;SDS011;6424;48.520;11.228;2022-12-18T04:10:16;55.73;;;27.30;;
12719;SDS011;6424;48.520;11.228;2022-12-18T04:12:57;56.83;;;25.33;;
12719;SDS011;6424;48.520;11.228;2022-12-18T04:15:23;58.17;;;28.57;;
12719;SDS011;6424;48.520;11.228;2022-12-18T04:18:04;60.00;;;27.93;;
12719;SDS011;6424;48.520;11.228;2022-12-18T04:20:45;58.53;;;26.83;;
12719;SDS011;6424;48.520;11.228;2022-12-18T04:23:26;58.47;;;26.73;;
12719;SDS011;6424;48.520;11.228;2022-12-18T04:25:52;57.47;;;27.00;;
12719;SDS011;6424;48.520;11.228;2022-12-18T04:28:32;54.80;;;27.17;;
12719;SDS011;6424;48.520;11.228;2022-12-18T04:31:13;53.67;;;25.77;;
12719;SDS011;6424;48.520;11.228;2022-12-18T04:33:54;56.90;;;27.00;;
12719;SDS011;6424;48.520;11.228;2022-12-18T04:36:35;53.60;;;26.60;;
12719;SDS011;6424;48.520;11.228;2022-12-18T04:39:17;60.83;;;27.17;;
12719;SDS011;6424;48.520;11.228;2022-12-18T04:42:01;54.63;;;26.87;;
12719;SDS011;6424;48.520;11.228;2022-12-18T04:44:42;51.90;;;26.53;;
12719;SDS011;6424;48.520;11.228;2022-12-18T04:47:22;51.87;;;24.83;;
12719;SDS011;6424;48.520;11.228;2022-12-18T04:50:03;53.70;;;25.13;;
12719;SDS011;6424;48.520;11.228;2022-12-18T04:52:44;52.80;;;25.30;;
12719;SDS011;6424;48.520;11.228;2022-12-18T04:55:25;49.93;;;24.27;;
12719;SDS011;6424;48.520;11.228;2022-12-18T04:58:06;50.20;;;24.47;;
12719;SDS011;6424;48.520;11.228;2022-12-18T05:00:47;49.63;;;24.33;;
12719;SDS011;6424;48.520;11.228;2022-12-18T05:03:28;66.67;;;29.30;;
12719;SDS011;6424;48.520;11.228;2022-12-18T05:06:09;55.27;;;27.27;;
12719;SDS011;6424;48.520;11.228;2022-12-18T05:08:50;56.93;;;26.27;;
12719;SDS011;6424;48.520;11.228;2022-12-18T05:11:31;55.67;;;25.87;;
12719;SDS011;6424;48.520;11.228;2022-12-18T05:14:12;52.77;;;26.00;;
12719;SDS011;6424;48.520;11.228;2022-12-18T05:16:53;53.87;;;25.27;;
12719;SDS011;6424;48.520;11.228;2022-12-18T05:19:33;53.13;;;25.30;;
12719;SDS011;6424;48.520;11.228;2022-12-18T05:22:14;48.37;;;24.90;;
12719;SDS011;6424;48.520;11.228;2022-12-18T05:24:40;55.07;;;26.47;;
12719;SDS011;6424;48.520;11.228;2022-12-18T05:27:21;55.77;;;24.97;;
12719;SDS011;6424;48.520;11.228;2022-12-18T05:30:01;56.07;;;26.50;;
12719;SDS011;6424;48.520;11.228;2022-12-18T05:32:42;53.33;;;25.77;;
12719;SDS011;6424;48.520;11.228;2022-12-18T05:35:23;57.87;;;26.40;;
12719;SDS011;6424;48.520;11.228;2022-12-18T05:38:04;56.77;;;26.43;;
12719;SDS011;6424;48.520;11.228;2022-12-18T05:40:45;56.10;;;28.07;;
12719;SDS011;6424;48.520;11.228;2022-12-18T05:43:27;55.67;;;25.87;;
12719;SDS011;6424;48.520;11.228;2022-12-18T05:46:11;51.77;;;24.97;;
12719;SDS011;6424;48.520;11.228;2022-12-18T05:48:54;54.63;;;25.20;;
12719;SDS011;6424;48.520;11.228;2022-12-18T05:51:35;57.03;;;25.30;;
12719;SDS011;6424;48.520;11.228;2022-12-18T05:54:00;52.20;;;25.67;;
12719;SDS011;6424;48.520;11.228;2022-12-18T05:56:41;49.57;;;23.67;;
12719;SDS011;6424;48.520;11.228;2022-12-18T05:59:07;55.30;;;29.37;;
12719;SDS011;6424;48.520;11.228;2022-12-18T06:01:33;57.30;;;28.73;;
12719;SDS011;6424;48.520;11.228;2022-12-18T06:04:14;51.23;;;25.97;;
12719;SDS011;6424;48.520;11.228;2022-12-18T06:06:40;44.90;;;24.07;;
12719;SDS011;6424;48.520;11.228;2022-12-18T06:09:21;47.50;;;24.77;;
12719;SDS011;6424;48.520;11.228;2022-12-18T06:12:01;38.67;;;21.23;;
12719;SDS011;6424;48.520;11.228;2022-12-18T06:14:42;39.47;;;19.50;;
12719;SDS011;6424;48.520;11.228;2022-12-18T06:17:26;36.13;;;19.90;;
12719;SDS011;6424;48.520;11.228;2022-12-18T06:20:09;33.80;;;17.70;;
12719;SDS011;6424;48.520;11.228;2022-12-18T06:22:50;34.17;;;19.23;;
12719;SDS011;6424;48.520;11.228;2022-12-18T06:25:31;29.87;;;15.97;;
12719;SDS011;6424;48.520;11.228;2022-12-18T06:28:13;34.50;;;18.77;;
12719;SDS011;6424;48.520;11.228;2022-12-18T06:30:53;37.47;;;18.10;;
12719;SDS011;6424;48.520;11.228;2022-12-18T06:33:34;34.57;;;18.07;;
12719;SDS011;6424;48.520;11.228;2022-12-18T06:36:16;32.40;;;17.00;;
12719;SDS011;6424;48.520;11.228;2022-12-18T06:38:57;35.33;;;18.30;;
12719;SDS011;6424;48.520;11.228;2022-12-18T06:41:38;35.03;;;18.90;;
12719;SDS011;6424;48.520;11.228;2022-12-18T06:44:19;34.30;;;18.97;;
12719;SDS011;6424;48.520;11.228;2022-12-18T06:47:00;36.07;;;18.53;;
12719;SDS011;6424;48.520;11.228;2022-12-18T06:49:40;48.93;;;23.57;;
12719;SDS011;6424;48.520;11.228;2022-12-18T06:52:21;45.83;;;23.80;;
12719;SDS011;6424;48.520;11.228;2022-12-18T06:55:02;42.73;;;21.23;;
12719;SDS011;6424;48.520;11.228;2022-12-18T06:57:43;49.43;;;22.60;;
12719;SDS011;6424;48.520;11.228;2022-12-18T07:00:24;45.90;;;21.57;;
12719;SDS011;6424;48.520;11.228;2022-12-18T07:03:05;43.33;;;22.60;;
12719;SDS011;6424;48.520;11.228;2022-12-18T07:05:45;42.90;;;20.77;;
12719;SDS011;6424;48.520;11.228;2022-12-18T07:08:26;44.07;;;20.67;;
12719;SDS011;6424;48.520;11.228;2022-12-18T07:11:08;36.07;;;19.07;;
12719;SDS011;6424;48.520;11.228;2022-12-18T07:13:49;37.10;;;21.00;;
12719;SDS011;6424;48.520;11.228;2022-12-18T07:16:30;41.17;;;19.97;;
12719;SDS011;6424;48.520;11.228;2022-12-18T07:19:10;45.37;;;20.73;;
12719;SDS011;6424;48.520;11.228;2022-12-18T07:21:51;41.47;;;22.20;;
12719;SDS011;6424;48.520;11.228;2022-12-18T07:24:32;43.87;;;21.23;;
12719;SDS011;6424;48.520;11.228;2022-12-18T07:27:14;41.73;;;20.87;;
12719;SDS011;6424;48.520;11.228;2022-12-18T07:29:55;37.87;;;19.20;;
12719;SDS011;6424;48.520;11.228;2022-12-18T07:32:36;36.60;;;19.10;;
12719;SDS011;6424;48.520;11.228;2022-12-18T07:35:16;39.77;;;19.67;;
12719;SDS011;6424;48.520;11.228;2022-12-18T07:37:57;35.90;;;18.17;;
12719;SDS011;6424;48.520;11.228;2022-12-18T07:40:38;40.07;;;20.33;;
12719;SDS011;6424;48.520;11.228;2022-12-18T07:43:18;38.07;;;19.03;;
12719;SDS011;6424;48.520;11.228;2022-12-18T07:45:59;37.17;;;19.67;;
12719;SDS011;6424;48.520;11.228;2022-12-18T07:48:41;43.47;;;20.17;;
12719;SDS011;6424;48.520;11.228;2022-12-18T07:51:22;40.07;;;19.63;;
12719;SDS011;6424;48.520;11.228;2022-12-18T07:54:03;41.07;;;21.20;;
12719;SDS011;6424;48.520;11.228;2022-12-18T07:56:44;39.43;;;20.07;;
12719;SDS011;6424;48.520;11.228;2022-12-18T07:59:25;38.23;;;20.70;;
12719;SDS011;6424;48.520;11.228;2022-12-18T08:02:06;35.87;;;18.20;;
12719;SDS011;6424;48.520;11.228;2022-12-18T08:04:47;36.23;;;19.23;;
12719;SDS011;6424;48.520;11.228;2022-12-18T08:07:27;37.27;;;20.13;;
12719;SDS011;6424;48.520;11.228;2022-12-18T08:10:08;33.77;;;19.17;;
12719;SDS011;6424;48.520;11.228;2022-12-18T08:12:50;37.87;;;18.73;;
12719;SDS011;6424;48.520;11.228;2022-12-18T08:15:16;35.13;;;18.33;;
12719;SDS011;6424;48.520;11.228;2022-12-18T08:17:57;35.03;;;18.37;;
12719;SDS011;6424;48.520;11.228;2022-12-18T08:20:38;38.13;;;20.03;;
12719;SDS011;6424;48.520;11.228;2022-12-18T08:23:19;34.20;;;19.17;;
12719;SDS011;6424;48.520;11.228;2022-12-18T08:25:59;33.23;;;17.93;;
12719;SDS011;6424;48.520;11.228;2022-12-18T08:28:40;39.57;;;20.67;;
12719;SDS011;6424;48.520;11.228;2022-12-18T08:31:22;36.53;;;20.03;;
12719;SDS011;6424;48.520;11.228;2022-12-18T08:34:03;38.27;;;20.47;;
12719;SDS011;6424;48.520;11.228;2022-12-18T08:36:43;37.83;;;20.27;;
12719;SDS011;6424;48.520;11.228;2022-12-18T08:39:24;38.83;;;20.27;;
12719;SDS011;6424;48.520;11.228;2022-12-18T08:41:50;33.87;;;19.83;;
12719;SDS011;6424;48.520;11.228;2022-12-18T08:44:49;38.57;;;19.97;;
12719;SDS011;6424;48.520;11.228;2022-12-18T08:47:30;29.87;;;17.43;;
12719;SDS011;6424;48.520;11.228;2022-12-18T08:50:11;35.23;;;17.87;;
12719;SDS011;6424;48.520;11.228;2022-12-18T08:52:52;34.40;;;18.33;;
12719;SDS011;6424;48.520;11.228;2022-12-18T08:55:18;39.23;;;20.90;;
12719;SDS011;6424;48.520;11.228;2022-12-18T08:57:58;31.33;;;17.50;;
12719;SDS011;6424;48.520;11.228;2022-12-18T09:00:39;36.97;;;19.00;;
12719;SDS011;6424;48.520;11.228;2022-12-18T09:03:20;32.40;;;17.80;;
12719;SDS011;6424;48.520;11.228;2022-12-18T09:06:02;30.03;;;17.13;;
12719;SDS011;6424;48.520;11.228;2022-12-18T09:08:44;32.20;;;18.20;;
12719;SDS011;6424;48.520;11.228;2022-12-18T09:11:26;34.30;;;17.77;;
12719;SDS011;6424;48.520;11.228;2022-12-18T09:14:08;33.63;;;19.13;;
12719;SDS011;6424;48.520;11.228;2022-12-18T09:16:35;32.47;;;17.93;;
12719;SDS011;6424;48.520;11.228;2022-12-18T09:19:15;35.93;;;18.60;;
12719;SDS011;6424;48.520;11.228;2022-12-18T09:21:41;30.83;;;18.00;;
12719;SDS011;6424;48.520;11.228;2022-12-18T09:24:22;32.60;;;17.17;;
12719;SDS011;6424;48.520;11.228;2022-12-18T09:27:03;36.10;;;17.23;;
12719;SDS011;6424;48.520;11.228;2022-12-18T09:29:43;30.33;;;17.50;;
12719;SDS011;6424;48.520;11.228;2022-12-18T09:32:24;30.27;;;17.93;;
12719;SDS011;6424;48.520;11.228;2022-12-18T09:35:05;32.90;;;17.00;;
12719;SDS011;6424;48.520;11.228;2022-12-18T09:37:46;29.93;;;16.37;;
12719;SDS011;6424;48.520;11.228;2022-12-18T09:40:28;33.30;;;17.70;;
12719;SDS011;6424;48.520;11.228;2022-12-18T09:43:03;31.80;;;16.70;;
12719;SDS011;6424;48.520;11.228;2022-12-18T09:45:46;31.77;;;15.97;;
12719;SDS011;6424;48.520;11.228;2022-12-18T09:48:32;27.80;;;16.33;;
12719;SDS011;6424;48.520;11.228;2022-12-18T09:54:18;34.50;;;18.37;;
12719;SDS011;6424;48.520;11.228;2022-12-18T09:57:03;32.60;;;20.07;;
12719;SDS011;6424;48.520;11.228;2022-12-18T09:59:46;34.40;;;22.10;;
12719;SDS011;6424;48.520;11.228;2022-12-18T10:02:41;36.60;;;19.73;;
12719;SDS011;6424;48.520;11.228;2022-12-18T10:05:33;34.57;;;19.50;;
12719;SDS011;6424;48.520;11.228;2022-12-18T10:11:43;35.37;;;19.70;;
12719;SDS011;6424;48.520;11.228;2022-12-18T10:14:40;35.57;;;20.90;;
12719;SDS011;6424;48.520;11.228;2022-12-18T10:17:35;33.93;;;18.93;;
12719;SDS011;6424;48.520;11.228;2022-12-18T10:20:39;34.97;;;19.43;;
12719;SDS011;6424;48.520;11.228;2022-12-18T10:26:33;33.83;;;18.83;;
12719;SDS011;6424;48.520;11.228;2022-12-18T10:29:15;34.10;;;19.50;;
12719;SDS011;6424;48.520;11.228;2022-12-18T10:31:56;32.70;;;19.77;;
12719;SDS011;6424;48.520;11.228;2022-12-18T10:34:37;33.17;;;18.13;;
12719;SDS011;6424;48.520;11.228;2022-12-18T10:37:19;34.00;;;18.43;;
12719;SDS011;6424;48.520;11.228;2022-12-18T10:43:03;31.00;;;18.33;;
12719;SDS011;6424;48.520;11.228;2022-12-18T10:45:55;33.17;;;18.27;;
12719;SDS011;6424;48.520;11.228;2022-12-18T10:51:37;30.97;;;17.00;;
12719;SDS011;6424;48.520;11.228;2022-12-18T10:54:20;35.47;;;20.13;;
12719;SDS011;6424;48.520;11.228;2022-12-18T10:57:16;31.97;;;18.60;;
12719;SDS011;6424;48.520;11.228;2022-12-18T11:03:29;35.67;;;19.27;;
12719;SDS011;6424;48.520;11.228;2022-12-18T11:06:19;37.20;;;20.00;;
12719;SDS011;6424;48.520;11.228;2022-12-18T11:09:20;36.50;;;20.13;;
12719;SDS011;6424;48.520;11.228;2022-12-18T11:12:03;34.90;;;19.97;;
12719;SDS011;6424;48.520;11.228;2022-12-18T11:15:05;33.30;;;19.00;;
12719;SDS011;6424;48.520;11.228;2022-12-18T11:17:49;30.70;;;17.77;;
12719;SDS011;6424;48.520;11.228;2022-12-18T11:23:14;31.30;;;18.43;;
12719;SDS011;6424;48.520;11.228;2022-12-18T11:25:56;30.00;;;17.77;;
12719;SDS011;6424;48.520;11.228;2022-12-18T11:28:40;31.70;;;17.93;;
12719;SDS011;6424;48.520;11.228;2022-12-18T11:31:25;29.60;;;17.70;;
12719;SDS011;6424;48.520;11.228;2022-12-18T11:34:27;29.40;;;18.43;;
12719;SDS011;6424;48.520;11.228;2022-12-18T11:37:10;29.40;;;17.23;;
12719;SDS011;6424;48.520;11.228;2022-12-18T11:39:58;29.33;;;18.63;;
12719;SDS011;6424;48.520;11.228;2022-12-18T11:46:04;28.67;;;17.33;;
12719;SDS011;6424;48.520;11.228;2022-12-18T11:48:37;27.00;;;16.73;;
12719;SDS011;6424;48.520;11.228;2022-12-18T11:51:41;28.70;;;15.93;;
12719;SDS011;6424;48.520;11.228;2022-12-18T11:54:27;24.43;;;15.53;;
12719;SDS011;6424;48.520;11.228;2022-12-18T11:57:12;27.70;;;16.07;;
12719;SDS011;6424;48.520;11.228;2022-12-18T12:08:59;24.67;;;15.57;;
12719;SDS011;6424;48.520;11.228;2022-12-18T12:18:01;28.37;;;16.47;;
12719;SDS011;6424;48.520;11.228;2022-12-18T12:21:02;27.10;;;16.40;;
12719;SDS011;6424;48.520;11.228;2022-12-18T12:26:37;30.93;;;18.03;;
12719;SDS011;6424;48.520;11.228;2022-12-18T12:32:19;28.80;;;18.10;;
12719;SDS011;6424;48.520;11.228;2022-12-18T12:37:51;32.83;;;18.67;;
12719;SDS011;6424;48.520;11.228;2022-12-18T12:40:35;33.07;;;19.20;;
12719;SDS011;6424;48.520;11.228;2022-12-18T12:46:05;34.97;;;20.63;;
12719;SDS011;6424;48.520;11.228;2022-12-18T12:48:52;33.90;;;20.10;;
12719;SDS011;6424;48.520;11.228;2022-12-18T12:51:39;30.70;;;19.23;;
12719;SDS011;6424;48.520;11.228;2022-12-18T12:54:23;34.53;;;20.73;;
12719;SDS011;6424;48.520;11.228;2022-12-18T12:57:11;34.57;;;19.53;;
12719;SDS011;6424;48.520;11.228;2022-12-18T13:00:11;28.43;;;17.30;;
12719;SDS011;6424;48.520;11.228;2022-12-18T13:05:54;29.33;;;17.83;;
12719;SDS011;6424;48.520;11.228;2022-12-18T13:08:56;31.20;;;17.53;;
12719;SDS011;6424;48.520;11.228;2022-12-18T13:14:40;31.77;;;18.63;;
12719;SDS011;6424;48.520;11.228;2022-12-18T13:20:08;30.90;;;18.27;;
12719;SDS011;6424;48.520;11.228;2022-12-18T13:22:52;31.03;;;18.03;;
12719;SDS011;6424;48.520;11.228;2022-12-18T13:25:36;37.57;;;20.93;;
12719;SDS011;6424;48.520;11.228;2022-12-18T13:28:22;30.80;;;18.17;;
12719;SDS011;6424;48.520;11.228;2022-12-18T13:31:06;32.80;;;20.07;;
12719;SDS011;6424;48.520;11.228;2022-12-18T13:33:47;29.03;;;19.03;;
12719;SDS011;6424;48.520;11.228;2022-12-18T13:36:29;32.93;;;21.23;;
12719;SDS011;6424;48.520;11.228;2022-12-18T13:44:34;35.07;;;21.37;;
12719;SDS011;6424;48.520;11.228;2022-12-18T13:47:36;35.43;;;23.13;;
12719;SDS011;6424;48.520;11.228;2022-12-18T13:50:20;45.23;;;26.60;;
12719;SDS011;6424;48.520;11.228;2022-12-18T13:52:51;37.27;;;22.17;;
12719;SDS011;6424;48.520;11.228;2022-12-18T13:55:32;36.77;;;23.60;;
12719;SDS011;6424;48.520;11.228;2022-12-18T13:58:03;34.53;;;22.17;;
12719;SDS011;6424;48.520;11.228;2022-12-18T14:00:45;34.13;;;20.57;;
12719;SDS011;6424;48.520;11.228;2022-12-18T14:03:19;31.13;;;19.27;;
12719;SDS011;6424;48.520;11.228;2022-12-18T14:06:03;30.20;;;18.97;;
12719;SDS011;6424;48.520;11.228;2022-12-18T14:08:47;30.37;;;19.00;;
12719;SDS011;6424;48.520;11.228;2022-12-18T14:11:28;31.17;;;19.17;;
12719;SDS011;6424;48.520;11.228;2022-12-18T14:14:10;28.00;;;18.67;;
12719;SDS011;6424;48.520;11.228;2022-12-18T14:16:57;31.30;;;19.80;;
12719;SDS011;6424;48.520;11.228;2022-12-18T14:19:43;31.73;;;19.27;;
12719;SDS011;6424;48.520;11.228;2022-12-18T14:22:25;35.07;;;19.60;;
12719;SDS011;6424;48.520;11.228;2022-12-18T14:28:12;32.73;;;18.90;;
12719;SDS011;6424;48.520;11.228;2022-12-18T14:30:55;30.63;;;18.13;;
12719;SDS011;6424;48.520;11.228;2022-12-18T14:33:36;31.30;;;18.73;;
12719;SDS011;6424;48.520;11.228;2022-12-18T14:36:23;29.37;;;19.10;;
12719;SDS011;6424;48.520;11.228;2022-12-18T14:39:13;36.47;;;20.90;;
12719;SDS011;6424;48.520;11.228;2022-12-18T14:41:57;32.07;;;19.27;;
12719;SDS011;6424;48.520;11.228;2022-12-18T14:44:38;29.23;;;19.03;;
12719;SDS011;6424;48.520;11.228;2022-12-18T14:47:19;30.87;;;19.73;;
12719;SDS011;6424;48.520;11.228;2022-12-18T14:50:00;33.80;;;19.30;;
12719;SDS011;6424;48.520;11.228;2022-12-18T14:52:41;28.30;;;18.47;;
12719;SDS011;6424;48.520;11.228;2022-12-18T14:55:14;29.07;;;17.57;;
12719;SDS011;6424;48.520;11.228;2022-12-18T14:57:59;29.77;;;18.37;;
12719;SDS011;6424;48.520;11.228;2022-12-18T15:00:41;31.87;;;18.47;;
12719;SDS011;6424;48.520;11.228;2022-12-18T15:03:22;32.63;;;18.97;;
12719;SDS011;6424;48.520;11.228;2022-12-18T15:09:05;30.97;;;18.77;;
12719;SDS011;6424;48.520;11.228;2022-12-18T15:12:15;31.77;;;19.23;;
12719;SDS011;6424;48.520;11.228;2022-12-18T15:18:17;34.37;;;19.40;;
12719;SDS011;6424;48.520;11.228;2022-12-18T15:21:08;31.37;;;17.43;;
12719;SDS011;6424;48.520;11.228;2022-12-18T15:23:50;28.50;;;17.93;;
12719;SDS011;6424;48.520;11.228;2022-12-18T15:26:32;31.00;;;17.60;;
12719;SDS011;6424;48.520;11.228;2022-12-18T15:29:21;28.10;;;17.07;;
12719;SDS011;6424;48.520;11.228;2022-12-18T15:32:10;29.50;;;17.80;;
12719;SDS011;6424;48.520;11.228;2022-12-18T15:35:03;33.07;;;19.87;;
12719;SDS011;6424;48.520;11.228;2022-12-18T15:37:51;33.70;;;18.97;;
12719;SDS011;6424;48.520;11.228;2022-12-18T15:40:32;36.57;;;19.87;;
12719;SDS011;6424;48.520;11.228;2022-12-18T15:43:13;32.10;;;19.23;;
12719;SDS011;6424;48.520;11.228;2022-12-18T15:46:13;32.33;;;20.33;;
12719;SDS011;6424;48.520;11.228;2022-12-18T15:48:56;34.97;;;20.13;;
12719;SDS011;6424;48.520;11.228;2022-12-18T15:51:23;37.87;;;21.10;;
12719;SDS011;6424;48.520;11.228;2022-12-18T15:54:10;38.80;;;23.27;;
12719;SDS011;6424;48.520;11.228;2022-12-18T15:56:53;34.30;;;21.60;;
12719;SDS011;6424;48.520;11.228;2022-12-18T15:59:53;37.67;;;20.40;;
12719;SDS011;6424;48.520;11.228;2022-12-18T16:02:36;33.47;;;20.53;;
12719;SDS011;6424;48.520;11.228;2022-12-18T16:05:17;35.47;;;21.30;;
12719;SDS011;6424;48.520;11.228;2022-12-18T16:07:45;36.33;;;21.63;;
12719;SDS011;6424;48.520;11.228;2022-12-18T16:10:26;38.97;;;22.27;;
12719;SDS011;6424;48.520;11.228;2022-12-18T16:13:11;39.13;;;23.03;;
12719;SDS011;6424;48.520;11.228;2022-12-18T16:15:56;44.23;;;26.07;;
12719;SDS011;6424;48.520;11.228;2022-12-18T16:18:36;37.03;;;22.90;;
12719;SDS011;6424;48.520;11.228;2022-12-18T16:21:17;42.57;;;24.27;;
12719;SDS011;6424;48.520;11.228;2022-12-18T16:23:58;34.20;;;20.70;;
12719;SDS011;6424;48.520;11.228;2022-12-18T16:26:39;39.60;;;22.60;;
12719;SDS011;6424;48.520;11.228;2022-12-18T16:29:21;47.70;;;27.03;;
12719;SDS011;6424;48.520;11.228;2022-12-18T16:32:08;41.80;;;25.03;;
12719;SDS011;6424;48.520;11.228;2022-12-18T16:34:53;38.90;;;23.43;;
12719;SDS011;6424;48.520;11.228;2022-12-18T16:37:40;40.17;;;22.80;;
12719;SDS011;6424;48.520;11.228;2022-12-18T16:40:21;38.87;;;23.23;;
12719;SDS011;6424;48.520;11.228;2022-12-18T16:43:02;42.63;;;24.70;;
12719;SDS011;6424;48.520;11.228;2022-12-18T16:45:43;38.77;;;21.53;;
12719;SDS011;6424;48.520;11.228;2022-12-18T16:48:23;43.43;;;26.77;;
12719;SDS011;6424;48.520;11.228;2022-12-18T16:51:04;35.17;;;23.10;;
12719;SDS011;6424;48.520;11.228;2022-12-18T16:53:45;40.27;;;22.77;;
12719;SDS011;6424;48.520;11.228;2022-12-18T16:56:11;46.17;;;27.03;;
12719;SDS011;6424;48.520;11.228;2022-12-18T16:58:52;43.63;;;25.37;;
12719;SDS011;6424;48.520;11.228;2022-12-18T17:01:34;40.10;;;21.97;;
12719;SDS011;6424;48.520;11.228;2022-12-18T17:04:15;41.20;;;24.57;;
12719;SDS011;6424;48.520;11.228;2022-12-18T17:06:56;37.73;;;21.60;;
12719;SDS011;6424;48.520;11.228;2022-12-18T17:09:37;38.37;;;22.23;;
12719;SDS011;6424;48.520;11.228;2022-12-18T17:12:18;38.47;;;22.73;;
12719;SDS011;6424;48.520;11.228;2022-12-18T17:15:00;36.00;;;20.70;;
12719;SDS011;6424;48.520;11.228;2022-12-18T17:17:40;39.70;;;21.73;;
12719;SDS011;6424;48.520;11.228;2022-12-18T17:20:06;36.77;;;20.40;;
12719;SDS011;6424;48.520;11.228;2022-12-18T17:22:47;38.83;;;21.53;;
12719;SDS011;6424;48.520;11.228;2022-12-18T17:25:28;31.60;;;19.23;;
12719;SDS011;6424;48.520;11.228;2022-12-18T17:28:09;31.87;;;19.27;;